Time;durP1;ratioP1;P1;durP2;ratioP2;P2;SDS_P1;SDS_P2;PMS_P1;PMS_P2;Temp;Humidity;BMP_temperature;BMP_pressure;BME280_temperature;BME280_humidity;BME280_pressure;Samples;Min_cycle;Max_cycle;Signal;HPM_P1;HPM_P2
2022/06/27 00:01:36;;;;;;;11.18;9.75;;;17.80;99.90;;;;;;6197102;28;20057;-78
2022/06/27 00:04:38;;;;;;;11.52;9.85;;;17.70;99.90;;;;;;6189630;28;20050;-78
2022/06/27 00:07:40;;;;;;;12.45;10.82;;;17.70;99.90;;;;;;6198088;28;20046;-78
2022/06/27 00:10:42;;;;;;;13.23;11.50;;;17.70;99.90;;;;;;6178920;28;20049;-77
2022/06/27 00:13:45;;;;;;;4.45;3.72;;;17.70;99.90;;;;;;6205513;28;20046;-76
2022/06/27 00:16:48;;;;;;;13.73;11.73;;;17.70;99.90;;;;;;6192852;28;20054;-77
2022/06/27 00:19:50;;;;;;;17.40;12.63;;;17.80;99.90;;;;;;6180717;28;20411;-77
2022/06/27 00:22:52;;;;;;;14.60;13.02;;;17.80;99.90;;;;;;6182552;28;20045;-76
2022/06/27 00:25:54;;;;;;;14.48;12.98;;;17.70;99.90;;;;;;6180036;28;20050;-77
2022/06/27 00:28:56;;;;;;;16.77;14.40;;;17.60;99.90;;;;;;6180531;28;20063;-77
2022/06/27 00:32:00;;;;;;;16.63;14.93;;;17.50;99.90;;;;;;6182198;28;20046;-78
2022/06/27 00:35:01;;;;;;;16.27;14.57;;;17.40;99.90;;;;;;6196654;28;20058;-77
2022/06/27 00:38:03;;;;;;;18.90;15.48;;;17.30;99.90;;;;;;6196696;28;20506;-77
2022/06/27 00:41:05;;;;;;;19.90;15.75;;;17.30;99.90;;;;;;6179029;28;20051;-77
2022/06/27 00:44:09;;;;;;;20.77;16.27;;;17.30;99.90;;;;;;6195270;28;20275;-77
2022/06/27 00:47:14;;;;;;;19.00;16.80;;;17.30;99.90;;;;;;6200657;28;20046;-78
2022/06/27 00:50:16;;;;;;;20.50;16.25;;;17.30;99.90;;;;;;6179514;28;20715;-78
2022/06/27 00:53:18;;;;;;;20.50;16.13;;;17.30;99.90;;;;;;6171980;28;20051;-77
2022/06/27 00:56:20;;;;;;;19.80;15.93;;;17.20;99.90;;;;;;6179857;28;20058;-78
2022/06/27 00:59:22;;;;;;;18.25;16.27;;;17.10;99.90;;;;;;6201532;28;20049;-78
2022/06/27 01:02:26;;;;;;;20.42;18.00;;;17.10;99.90;;;;;;6201956;28;20043;-78
2022/06/27 01:05:28;;;;;;;;;;;17.00;99.90;;;;;;6206237;28;20042;-78
2022/06/27 01:08:30;;;;;;;17.23;15.43;;;17.00;99.90;;;;;;6185338;28;19921;-78
2022/06/27 01:11:32;;;;;;;19.85;17.05;;;17.00;99.90;;;;;;6184046;28;20058;-78
2022/06/27 01:14:34;;;;;;;17.63;15.57;;;17.00;99.90;;;;;;6183990;28;20488;-78
2022/06/27 01:17:38;;;;;;;19.83;15.63;;;17.00;99.90;;;;;;6201245;28;20050;-78
2022/06/27 01:20:43;;;;;;;10.45;9.20;;;17.10;99.90;;;;;;6201358;28;20061;-77
2022/06/27 01:23:47;;;;;;;19.90;17.83;;;17.00;99.90;;;;;;6192101;28;20061;-77
2022/06/27 01:26:50;;;;;;;6.35;5.63;;;17.10;99.90;;;;;;6182571;28;20042;-76
2022/06/27 01:29:52;;;;;;;16.92;15.23;;;17.10;99.90;;;;;;6201208;28;20185;-77
2022/06/27 01:32:53;;;;;;;19.63;16.17;;;17.20;99.90;;;;;;6183388;28;20056;-77
2022/06/27 01:36:41;;;;;;;17.70;14.63;;;17.10;99.90;;;;;;6201119;28;20042;-78
2022/06/27 01:39:21;;;;;;;15.10;13.50;;;17.00;99.90;;;;;;6196268;28;20082;-78
2022/06/27 01:42:23;;;;;;;16.65;14.70;;;17.00;99.90;;;;;;6200909;28;20050;-77
2022/06/27 01:45:25;;;;;;;21.13;16.50;;;17.00;99.90;;;;;;6196537;28;20203;-78
2022/06/27 01:48:29;;;;;;;20.63;16.58;;;17.00;99.90;;;;;;6200282;28;20046;-78
2022/06/27 01:51:31;;;;;;;19.70;16.30;;;16.90;99.90;;;;;;6182321;28;20352;-78
2022/06/27 01:54:36;;;;;;;19.50;15.77;;;16.90;99.90;;;;;;6200910;28;20047;-78
2022/06/27 01:57:39;;;;;;;17.05;15.15;;;16.90;99.90;;;;;;6193970;28;20072;-78
2022/06/27 02:00:41;;;;;;;15.90;13.98;;;16.90;99.90;;;;;;6200810;28;20043;-77
2022/06/27 02:03:43;;;;;;;18.80;14.77;;;16.90;99.90;;;;;;6182407;28;20050;-77
2022/06/27 02:06:46;;;;;;;15.50;13.90;;;16.90;99.90;;;;;;6182460;28;20599;-77
2022/06/27 02:09:49;;;;;;;15.55;13.63;;;16.90;99.90;;;;;;6185004;28;20200;-77
2022/06/27 02:12:52;;;;;;;14.27;12.70;;;16.80;99.90;;;;;;6189913;28;20479;-78
2022/06/27 02:16:08;;;;;;;16.50;13.73;;;16.80;99.90;;;;;;6197890;28;20058;-78
2022/06/27 02:19:11;;;;;;;14.50;13.00;;;16.70;99.90;;;;;;6199426;28;20065;-77
2022/06/27 02:22:14;;;;;;;15.35;13.77;;;16.70;99.90;;;;;;6198520;28;20050;-78
2022/06/27 02:25:17;;;;;;;15.77;13.65;;;16.70;99.90;;;;;;6176341;28;20140;-78
2022/06/27 02:28:22;;;;;;;17.55;14.10;;;16.80;99.90;;;;;;6193906;28;20057;-77
2022/06/27 02:31:23;;;;;;;17.35;14.70;;;16.70;99.90;;;;;;6206896;28;20050;-77
2022/06/27 02:34:25;;;;;;;17.92;15.02;;;16.70;99.90;;;;;;6181468;28;20534;-76
2022/06/27 02:37:28;;;;;;;18.55;13.98;;;16.70;99.90;;;;;;6197594;28;20042;-76
2022/06/27 02:40:32;;;;;;;16.30;14.38;;;16.70;99.90;;;;;;6199627;28;20042;-76
2022/06/27 02:43:36;;;;;;;;;;;16.70;99.90;;;;;;6182565;28;20046;-77
2022/06/27 02:46:39;;;;;;;16.25;14.55;;;16.60;99.90;;;;;;6199615;28;19926;-77
2022/06/27 02:49:42;;;;;;;12.43;10.38;;;16.70;99.90;;;;;;6181189;28;20050;-77
2022/06/27 02:52:47;;;;;;;10.43;9.40;;;16.60;99.90;;;;;;6198821;28;20053;-77
2022/06/27 02:55:54;;;;;;;17.42;12.65;;;16.70;99.90;;;;;;6198831;28;20050;-77
2022/06/27 02:59:03;;;;;;;14.73;12.70;;;16.70;99.90;;;;;;6198548;28;20054;-77
2022/06/27 03:02:09;;;;;;;16.63;13.65;;;16.80;99.90;;;;;;6181483;28;20062;-78
2022/06/27 03:05:11;;;;;;;15.80;13.75;;;16.70;99.90;;;;;;6212595;28;20051;-77
2022/06/27 03:08:13;;;;;;;15.52;13.65;;;16.60;99.90;;;;;;6196072;28;20042;-78
2022/06/27 03:11:18;;;;;;;17.75;13.98;;;16.60;99.90;;;;;;6180494;28;20042;-78
2022/06/27 03:14:20;;;;;;;19.10;15.13;;;16.70;99.90;;;;;;6198914;28;20085;-78
2022/06/27 03:17:22;;;;;;;15.85;13.90;;;16.80;99.90;;;;;;6181468;28;20058;-78
2022/06/27 03:20:24;;;;;;;18.58;15.50;;;16.80;99.90;;;;;;6177147;28;20515;-78
2022/06/27 03:23:27;;;;;;;25.52;16.77;;;16.80;99.90;;;;;;6157228;28;20050;-78
2022/06/27 03:26:30;;;;;;;19.45;15.98;;;16.70;99.90;;;;;;6157596;28;20054;-78
2022/06/27 03:29:32;;;;;;;16.63;14.65;;;16.60;99.90;;;;;;6171303;28;20050;-77
2022/06/27 03:32:34;;;;;;;18.08;14.68;;;16.60;99.90;;;;;;6181013;28;20061;-78
2022/06/27 03:35:36;;;;;;;18.05;14.20;;;16.50;99.90;;;;;;6180723;28;20050;-78
2022/06/27 03:38:38;;;;;;;16.02;13.88;;;16.50;99.90;;;;;;6211124;28;20058;-78
2022/06/27 03:41:41;;;;;;;19.02;14.27;;;16.50;99.90;;;;;;6191750;28;20058;-78
2022/06/27 03:44:44;;;;;;;15.55;13.95;;;16.50;99.90;;;;;;6198428;28;20081;-78
2022/06/27 03:47:48;;;;;;;11.30;10.10;;;16.60;99.90;;;;;;6197613;28;20042;-78
2022/06/27 03:50:48;;;;;;;;;;;16.60;99.90;;;;;;6197558;28;20053;-77
2022/06/27 03:53:51;;;;;;;15.02;11.95;;;16.50;99.90;;;;;;6199240;28;20374;-78
2022/06/27 03:56:56;;;;;;;15.93;12.35;;;16.50;99.90;;;;;;6179234;28;20337;-78
2022/06/27 03:59:57;;;;;;;12.38;11.05;;;16.50;99.90;;;;;;6180196;28;20208;-77
2022/06/27 04:03:00;;;;;;;10.45;9.38;;;16.50;99.90;;;;;;6178097;28;20054;-78
2022/06/27 04:06:02;;;;;;;11.52;10.02;;;16.60;99.90;;;;;;6157850;28;20050;-78
2022/06/27 04:09:04;;;;;;;15.10;11.35;;;16.50;99.90;;;;;;6194261;28;20046;-78
2022/06/27 04:12:08;;;;;;;15.63;11.90;;;16.50;99.90;;;;;;6197370;28;20174;-77
2022/06/27 04:15:12;;;;;;;13.02;11.30;;;16.60;99.90;;;;;;6195191;28;20136;-77
2022/06/27 04:18:14;;;;;;;14.00;12.00;;;16.40;99.90;;;;;;6196467;28;20046;-77
2022/06/27 04:21:16;;;;;;;15.55;12.30;;;16.40;99.90;;;;;;6176385;28;20498;-78
2022/06/27 04:24:17;;;;;;;20.15;13.50;;;16.30;99.90;;;;;;6165876;28;20047;-78
2022/06/27 04:27:21;;;;;;;19.30;13.40;;;16.40;99.90;;;;;;6173671;28;20054;-77
2022/06/27 04:30:23;;;;;;;14.25;11.35;;;16.40;99.90;;;;;;6181931;28;20051;-77
2022/06/27 04:33:25;;;;;;;12.25;10.63;;;16.50;99.90;;;;;;6182161;28;20047;-77
2022/06/27 04:36:27;;;;;;;12.77;10.48;;;16.50;99.90;;;;;;6184645;28;20129;-78
2022/06/27 04:39:29;;;;;;;12.13;10.43;;;16.50;99.90;;;;;;6200832;28;20061;-77
2022/06/27 04:42:32;;;;;;;12.07;10.88;;;16.40;99.90;;;;;;6182959;28;20185;-78
2022/06/27 04:45:34;;;;;;;13.10;10.77;;;16.40;99.90;;;;;;6194643;28;20050;-77
2022/06/27 04:48:37;;;;;;;10.77;9.70;;;16.50;99.90;;;;;;6206238;28;20053;-75
2022/06/27 04:51:39;;;;;;;9.87;8.93;;;16.50;99.90;;;;;;6174174;28;20061;-75
2022/06/27 04:54:41;;;;;;;10.98;9.77;;;16.40;99.90;;;;;;6186939;28;20051;-75
2022/06/27 04:57:45;;;;;;;8.52;7.25;;;16.50;99.90;;;;;;6177793;28;20043;-76
2022/06/27 05:00:47;;;;;;;12.00;9.80;;;16.40;99.90;;;;;;6182501;28;20058;-75
2022/06/27 05:03:49;;;;;;;12.10;10.50;;;16.40;99.90;;;;;;6201854;28;20054;-75
2022/06/27 05:06:51;;;;;;;11.75;9.60;;;16.40;99.90;;;;;;6181108;28;20065;-75
2022/06/27 05:09:53;;;;;;;13.48;9.85;;;16.40;99.90;;;;;;6202025;28;20130;-75
2022/06/27 05:12:57;;;;;;;12.88;10.43;;;16.40;99.90;;;;;;6200644;28;20105;-75
2022/06/27 05:15:59;;;;;;;17.27;10.82;;;16.40;99.90;;;;;;6184244;28;20177;-75
2022/06/27 05:19:01;;;;;;;14.05;10.27;;;16.40;99.90;;;;;;6200325;28;20173;-76
2022/06/27 05:22:03;;;;;;;13.50;10.13;;;16.50;99.90;;;;;;6170736;28;20054;-76
2022/06/27 05:25:07;;;;;;;11.52;8.05;;;16.50;99.90;;;;;;6181922;28;20065;-75
2022/06/27 05:28:10;;;;;;;11.40;10.30;;;16.50;99.90;;;;;;6160270;28;20142;-75
2022/06/27 05:31:12;;;;;;;;;;;16.50;99.90;;;;;;6177526;28;20057;-74
2022/06/27 05:34:14;;;;;;;3.00;2.80;;;16.60;99.90;;;;;;6194186;28;19941;-76
2022/06/27 05:37:16;;;;;;;10.13;8.27;;;16.80;99.90;;;;;;6188867;28;20061;-75
2022/06/27 05:40:19;;;;;;;12.00;8.88;;;17.30;99.90;;;;;;6182893;28;20522;-75
2022/06/27 05:43:23;;;;;;;12.60;9.35;;;17.30;99.90;;;;;;6192985;28;20074;-74
2022/06/27 05:46:25;;;;;;;9.60;8.65;;;17.40;99.90;;;;;;6200232;28;20049;-82
2022/06/27 05:49:27;;;;;;;13.43;8.90;;;17.30;99.90;;;;;;6195080;28;20049;-76
2022/06/27 05:52:30;;;;;;;11.25;8.98;;;17.30;99.90;;;;;;6178644;28;20047;-74
2022/06/27 05:55:32;;;;;;;9.95;8.95;;;17.20;99.90;;;;;;6202988;28;20051;-76
2022/06/27 05:58:38;;;;;;;10.10;9.02;;;17.10;99.90;;;;;;6200085;28;20053;-80
2022/06/27 06:01:40;;;;;;;12.40;8.68;;;17.10;99.90;;;;;;6199996;28;20053;-79
2022/06/27 06:04:42;;;;;;;10.50;8.80;;;17.00;99.90;;;;;;6175522;28;20403;-80
2022/06/27 06:07:45;;;;;;;10.27;8.77;;;17.00;99.90;;;;;;6165836;28;20403;-80
2022/06/27 06:10:47;;;;;;;11.60;9.77;;;16.90;99.90;;;;;;6189244;28;20089;-81
2022/06/27 06:13:52;;;;;;;13.05;10.30;;;16.80;99.90;;;;;;6187403;28;20059;-80
2022/06/27 06:16:54;;;;;;;9.85;8.85;;;16.80;99.90;;;;;;6200468;28;20550;-79
2022/06/27 06:19:56;;;;;;;11.30;9.60;;;16.90;99.90;;;;;;6175710;28;20050;-79
2022/06/27 06:22:59;;;;;;;9.82;7.97;;;16.80;99.90;;;;;;6196113;28;20588;-75
2022/06/27 06:26:02;;;;;;;7.47;6.68;;;16.90;99.90;;;;;;6182359;28;20084;-75
2022/06/27 06:29:12;;;;;;;;;;;16.90;99.90;;;;;;6183493;28;20054;-75
2022/06/27 06:32:14;;;;;;;8.00;7.30;;;16.90;99.90;;;;;;6197513;28;19980;-76
2022/06/27 06:35:16;;;;;;;8.15;7.35;;;16.90;99.90;;;;;;6197605;28;20495;-76
2022/06/27 06:38:19;;;;;;;8.18;7.25;;;16.90;99.90;;;;;;6170629;28;20073;-75
2022/06/27 06:41:21;;;;;;;9.00;7.05;;;16.90;99.90;;;;;;6198720;28;20043;-75
2022/06/27 06:44:25;;;;;;;7.65;6.95;;;16.90;99.90;;;;;;6183084;28;20054;-75
2022/06/27 06:47:27;;;;;;;7.60;6.80;;;17.00;99.90;;;;;;6187956;28;20109;-76
2022/06/27 06:50:29;;;;;;;6.53;5.90;;;17.00;99.90;;;;;;6198232;28;20051;-76
2022/06/27 06:53:31;;;;;;;8.35;6.75;;;17.10;99.90;;;;;;6199546;28;20411;-75
2022/06/27 06:56:34;;;;;;;7.88;6.95;;;17.10;99.90;;;;;;6198678;28;20050;-75
2022/06/27 06:59:38;;;;;;;6.87;6.17;;;17.10;99.90;;;;;;6198603;28;20046;-75
2022/06/27 07:02:40;;;;;;;7.20;6.10;;;17.00;99.90;;;;;;6184476;28;20062;-75
2022/06/27 07:05:42;;;;;;;8.75;6.95;;;17.00;99.90;;;;;;6198901;28;20129;-75
2022/06/27 07:08:46;;;;;;;7.38;6.63;;;17.00;99.90;;;;;;6198916;28;20057;-75
2022/06/27 07:11:48;;;;;;;;;;;17.10;99.90;;;;;;6182132;28;20410;-76
2022/06/27 07:14:51;;;;;;;8.05;7.32;;;17.10;99.90;;;;;;6194655;28;19944;-76
2022/06/27 07:17:53;;;;;;;9.40;8.05;;;17.10;99.90;;;;;;6194911;28;20046;-76
2022/06/27 07:20:55;;;;;;;10.77;7.70;;;17.00;99.90;;;;;;6198551;28;20049;-76
2022/06/27 07:23:58;;;;;;;8.95;8.05;;;17.10;99.90;;;;;;6196546;28;20054;-76
2022/06/27 07:27:01;;;;;;;9.75;7.88;;;17.10;99.90;;;;;;6198160;28;20061;-76
2022/06/27 07:30:06;;;;;;;7.85;7.15;;;17.20;99.90;;;;;;6180507;28;20050;-76
2022/06/27 07:33:09;;;;;;;9.77;7.55;;;17.20;99.90;;;;;;6198500;28;20436;-76
2022/06/27 07:36:15;;;;;;;9.55;8.00;;;17.30;99.90;;;;;;6210183;28;20045;-76
2022/06/27 07:39:16;;;;;;;8.55;7.80;;;17.30;99.90;;;;;;6222545;28;20057;-75
2022/06/27 07:42:19;;;;;;;9.70;8.32;;;17.30;99.90;;;;;;6182732;28;20538;-76
2022/06/27 07:45:24;;;;;;;9.93;8.93;;;17.30;99.90;;;;;;6157067;28;20165;-76
2022/06/27 07:48:26;;;;;;;12.70;11.45;;;17.30;99.90;;;;;;6173720;28;20055;-75
2022/06/27 07:51:28;;;;;;;12.02;10.93;;;17.30;99.90;;;;;;6177410;28;20053;-76
2022/06/27 07:54:30;;;;;;;12.45;11.20;;;17.40;99.90;;;;;;6203749;28;20058;-75
2022/06/27 07:57:31;;;;;;;15.63;12.27;;;17.40;99.90;;;;;;6211547;28;20133;-75
2022/06/27 08:00:35;;;;;;;12.85;11.60;;;17.40;99.90;;;;;;6197515;28;20185;-76
2022/06/27 08:03:39;;;;;;;;;;;17.40;99.90;;;;;;6181150;28;20064;-76
2022/06/27 08:06:41;;;;;;;12.13;10.93;;;17.40;99.90;;;;;;6179380;28;19937;-76
2022/06/27 08:09:43;;;;;;;12.88;11.52;;;17.50;99.90;;;;;;6198942;28;20078;-75
2022/06/27 08:12:47;;;;;;;10.30;9.30;;;17.60;99.90;;;;;;6169637;28;20130;-74
2022/06/27 08:15:50;;;;;;;10.82;9.88;;;17.60;99.90;;;;;;6179780;28;20178;-74
2022/06/27 08:18:53;;;;;;;13.13;10.80;;;17.70;99.90;;;;;;6196276;28;20108;-75
2022/06/27 08:21:55;;;;;;;9.77;8.75;;;17.70;99.90;;;;;;6175624;28;20565;-73
2022/06/27 08:24:58;;;;;;;10.90;9.80;;;17.70;99.90;;;;;;6187753;28;20073;-74
2022/06/27 08:28:00;;;;;;;10.95;9.85;;;17.70;99.90;;;;;;6172675;28;20054;-75
2022/06/27 08:31:04;;;;;;;12.80;10.23;;;17.70;99.90;;;;;;6179574;28;20050;-74
2022/06/27 08:34:07;;;;;;;10.57;9.60;;;17.80;99.90;;;;;;6196937;28;20407;-74
2022/06/27 08:37:09;;;;;;;10.00;9.05;;;17.80;99.90;;;;;;6197355;28;20133;-75
2022/06/27 08:40:13;;;;;;;10.48;9.18;;;17.90;99.90;;;;;;6197811;28;20058;-75
2022/06/27 08:43:16;;;;;;;8.85;8.05;;;17.80;99.90;;;;;;6196382;28;20050;-74
2022/06/27 08:46:20;;;;;;;8.88;8.07;;;17.80;99.90;;;;;;6174840;28;20050;-74
2022/06/27 08:49:23;;;;;;;9.75;8.75;;;17.70;99.90;;;;;;6171997;28;20057;-75
2022/06/27 08:52:26;;;;;;;9.30;8.40;;;17.70;99.90;;;;;;6176690;28;20093;-75
2022/06/27 08:55:30;;;;;;;9.32;8.32;;;17.60;99.90;;;;;;6156021;28;20057;-75
2022/06/27 08:58:32;;;;;;;13.52;8.80;;;17.50;99.90;;;;;;6190551;28;20427;-75
2022/06/27 09:01:37;;;;;;;11.45;8.63;;;17.50;99.90;;;;;;6197123;28;20050;-75
2022/06/27 09:04:57;;;;;;;12.30;9.65;;;17.50;99.90;;;;;;6179790;28;20104;-75
2022/06/27 09:08:02;;;;;;;11.85;10.18;;;17.40;99.90;;;;;;6179324;28;20054;-75
2022/06/27 09:11:05;;;;;;;11.02;10.00;;;17.50;99.90;;;;;;6192070;28;20154;-75
2022/06/27 09:14:27;;;;;;;10.63;9.70;;;17.40;99.90;;;;;;6173241;28;20058;-74
2022/06/27 09:17:31;;;;;;;11.32;9.27;;;17.40;99.90;;;;;;6180040;28;20050;-75
2022/06/27 09:20:47;;;;;;;;;;;17.40;99.90;;;;;;6195892;28;20129;-74
2022/06/27 09:23:50;;;;;;;10.75;9.75;;;17.40;99.90;;;;;;6201388;28;19921;-74
2022/06/27 09:26:53;;;;;;;;;;;17.30;99.90;;;;;;6180037;28;20463;-75
2022/06/27 09:29:57;;;;;;;11.88;9.60;;;17.30;99.90;;;;;;6177049;28;20335;-75
2022/06/27 09:33:00;;;;;;;;;;;17.30;99.90;;;;;;6177268;28;20054;-75
2022/06/27 09:36:09;;;;;;;11.98;10.88;;;17.30;99.90;;;;;;6196187;28;19922;-75
2022/06/27 09:39:20;;;;;;;11.45;9.70;;;17.40;99.90;;;;;;6199989;28;20523;-74
2022/06/27 09:42:24;;;;;;;10.75;9.65;;;17.50;99.90;;;;;;6197417;28;20505;-75
2022/06/27 09:45:28;;;;;;;11.40;10.20;;;17.50;99.90;;;;;;6160956;28;20484;-75
2022/06/27 09:48:32;;;;;;;10.50;9.50;;;17.60;99.90;;;;;;6196984;28;20050;-75
2022/06/27 09:51:35;;;;;;;;;;;17.60;99.90;;;;;;6188631;28;20491;-75
2022/06/27 09:54:38;;;;;;;9.70;8.70;;;17.70;99.90;;;;;;6182155;28;19964;-74
2022/06/27 09:57:41;;;;;;;10.55;9.55;;;17.70;99.90;;;;;;6183063;28;20050;-74
2022/06/27 10:00:44;;;;;;;11.27;10.10;;;17.70;99.90;;;;;;6194028;28;20094;-74
2022/06/27 10:03:48;;;;;;;9.98;9.07;;;17.80;99.90;;;;;;6171093;28;20154;-72
2022/06/27 10:06:50;;;;;;;10.57;9.55;;;17.90;99.90;;;;;;6198155;28;20046;-76
2022/06/27 10:09:53;;;;;;;10.43;8.73;;;17.80;99.90;;;;;;6198628;28;20174;-79
2022/06/27 10:13:00;;;;;;;10.80;9.80;;;17.80;99.90;;;;;;6196881;28;20049;-87
2022/06/27 10:16:08;;;;;;;8.80;6.60;;;17.70;99.90;;;;;;6182901;28;20048;-78
2022/06/27 10:19:15;;;;;;;7.03;5.60;;;17.70;99.90;;;;;;6166396;28;20484;-78
2022/06/27 10:22:26;;;;;;;9.90;8.15;;;18.00;99.90;;;;;;6175223;28;20061;-75
2022/06/27 10:25:35;;;;;;;10.27;9.20;;;18.30;99.90;;;;;;6196602;28;20058;-80
2022/06/27 10:28:37;;;;;;;10.88;9.27;;;18.30;99.90;;;;;;6191660;28;20049;-79
2022/06/27 10:31:46;;;;;;;11.27;10.05;;;18.10;99.90;;;;;;6180705;28;20050;-79
2022/06/27 10:35:14;;;;;;;12.02;10.73;;;18.00;99.90;;;;;;6179105;28;20053;-78
2022/06/27 10:38:23;;;;;;;23.63;12.13;;;18.10;99.90;;;;;;6196727;28;20141;-79
2022/06/27 10:41:41;;;;;;;6.90;6.10;;;18.00;99.90;;;;;;6197777;28;20640;-81
2022/06/27 10:44:43;;;;;;;7.05;5.97;;;17.90;99.90;;;;;;6203272;28;20554;-82
2022/06/27 10:47:45;;;;;;;7.20;6.50;;;17.90;99.90;;;;;;6186872;28;20523;-82
2022/06/27 10:50:49;;;;;;;5.88;5.28;;;17.80;99.90;;;;;;6175166;28;20047;-79
2022/06/27 10:53:52;;;;;;;13.60;6.78;;;17.70;99.90;;;;;;6193461;28;20073;-82
2022/06/27 10:56:55;;;;;;;8.23;5.03;;;17.60;99.90;;;;;;6197450;28;20054;-81
2022/06/27 11:00:04;;;;;;;4.63;4.18;;;17.60;99.90;;;;;;6191699;28;20046;-81
2022/06/27 11:03:09;;;;;;;5.15;4.40;;;17.60;99.90;;;;;;6178865;28;20622;-81
2022/06/27 11:06:14;;;;;;;5.80;5.20;;;17.70;99.90;;;;;;6197266;28;20046;-81
2022/06/27 11:09:16;;;;;;;5.05;3.80;;;17.70;99.90;;;;;;6197698;28;20054;-81
2022/06/27 11:12:20;;;;;;;6.45;5.40;;;17.70;99.90;;;;;;6178389;28;20413;-84
2022/06/27 11:15:23;;;;;;;6.50;5.15;;;17.70;99.90;;;;;;6178569;28;20045;-79
2022/06/27 11:18:25;;;;;;;4.95;4.28;;;17.70;99.90;;;;;;6197767;28;20181;-78
2022/06/27 11:21:30;;;;;;;6.70;4.85;;;17.70;99.90;;;;;;6196308;28;20039;-78
2022/06/27 11:24:33;;;;;;;6.18;5.20;;;17.70;99.90;;;;;;6195026;28;20177;-79
2022/06/27 11:27:49;;;;;;;5.93;5.32;;;17.70;99.90;;;;;;6192741;28;20472;-84
2022/06/27 11:34:13;;;;;;;5.50;4.25;;;17.70;99.90;;;;;;6186082;28;20060;-82
2022/06/27 11:37:18;;;;;;;6.03;4.93;;;17.70;99.90;;;;;;6197141;28;20060;-81
2022/06/27 11:40:20;;;;;;;7.65;5.18;;;17.80;99.90;;;;;;6176953;28;20050;-80
2022/06/27 11:43:22;;;;;;;6.50;5.63;;;17.80;99.90;;;;;;6187392;28;20507;-82
2022/06/27 11:46:30;;;;;;;5.15;4.65;;;17.90;99.90;;;;;;6187232;28;20550;-81
2022/06/27 11:49:33;;;;;;;5.53;4.53;;;17.90;99.90;;;;;;6173968;28;20046;-80
2022/06/27 11:52:38;;;;;;;5.93;5.28;;;17.80;99.90;;;;;;6184112;28;20051;-81
2022/06/27 11:55:40;;;;;;;7.78;6.53;;;17.80;99.90;;;;;;6197820;28;20042;-81
2022/06/27 11:58:49;;;;;;;7.60;5.00;;;17.80;99.90;;;;;;6171399;28;20495;-81
2022/06/27 12:01:53;;;;;;;6.40;4.75;;;17.80;99.90;;;;;;6193585;28;20416;-82
2022/06/27 12:05:07;;;;;;;6.20;5.50;;;17.70;99.90;;;;;;6180324;28;20062;-82
2022/06/27 12:08:12;;;;;;;7.43;6.70;;;17.70;99.90;;;;;;6184704;28;20047;-82
2022/06/27 12:11:26;;;;;;;7.32;6.63;;;17.80;99.90;;;;;;6179238;28;20435;-82
2022/06/27 12:14:28;;;;;;;;;;;17.90;99.90;;;;;;6177729;28;20065;-81
2022/06/27 12:17:39;;;;;;;6.00;5.40;;;18.00;99.90;;;;;;6196617;28;19928;-82
2022/06/27 12:20:44;;;;;;;7.45;6.05;;;18.10;99.90;;;;;;6197655;28;20050;-82
2022/06/27 12:23:48;;;;;;;9.23;7.05;;;18.00;99.90;;;;;;6179099;28;20051;-82
2022/06/27 12:26:50;;;;;;;8.65;6.97;;;18.00;99.90;;;;;;6197824;28;20050;-82
2022/06/27 12:29:52;;;;;;;9.75;7.80;;;18.00;99.90;;;;;;6197101;28;20046;-82
2022/06/27 12:32:55;;;;;;;10.10;6.45;;;17.90;99.90;;;;;;6196696;28;20105;-82
2022/06/27 12:35:57;;;;;;;7.68;6.88;;;17.70;99.90;;;;;;6174850;28;20046;-81
2022/06/27 12:39:00;;;;;;;9.50;7.35;;;17.70;99.90;;;;;;6171118;28;20050;-82
2022/06/27 12:42:03;;;;;;;10.05;8.10;;;17.60;99.90;;;;;;6174910;28;20047;-82
2022/06/27 12:45:06;;;;;;;11.30;9.47;;;17.60;99.90;;;;;;6161538;28;20098;-82
2022/06/27 12:48:10;;;;;;;10.48;9.38;;;17.70;99.90;;;;;;6168028;28;20051;-82
2022/06/27 12:51:12;;;;;;;11.75;9.98;;;17.70;99.90;;;;;;6169897;28;20057;-82
2022/06/27 12:54:15;;;;;;;13.75;10.70;;;17.80;99.90;;;;;;6175412;28;20050;-82
2022/06/27 12:57:17;;;;;;;10.13;9.00;;;17.80;99.90;;;;;;6176653;28;20081;-83
2022/06/27 13:00:20;;;;;;;8.63;7.35;;;17.70;99.90;;;;;;6175514;28;20051;-82
2022/06/27 13:03:21;;;;;;;8.05;6.72;;;17.70;99.90;;;;;;6176364;28;20062;-82
2022/06/27 13:06:23;;;;;;;8.05;6.43;;;17.70;99.90;;;;;;6175906;28;20055;-82
2022/06/27 13:09:27;;;;;;;5.70;4.65;;;17.70;99.90;;;;;;6173970;28;20057;-82
2022/06/27 13:12:29;;;;;;;5.18;4.28;;;17.70;99.90;;;;;;6176258;28;20046;-81
2022/06/27 13:15:35;;;;;;;4.47;3.60;;;17.70;99.90;;;;;;6179269;28;20038;-82
2022/06/27 13:18:36;;;;;;;5.18;4.20;;;17.60;99.90;;;;;;6174197;28;20512;-81
2022/06/27 13:21:38;;;;;;;7.18;4.65;;;17.60;99.90;;;;;;6177051;28;20057;-82
2022/06/27 13:24:42;;;;;;;5.28;4.57;;;17.70;99.90;;;;;;6169091;28;20054;-81
2022/06/27 13:27:44;;;;;;;9.95;6.28;;;17.60;99.90;;;;;;6174380;28;20416;-82
2022/06/27 13:30:46;;;;;;;6.13;4.50;;;17.60;99.90;;;;;;6176013;28;20050;-82
2022/06/27 13:33:48;;;;;;;7.30;6.43;;;17.60;99.90;;;;;;6176787;28;20058;-82
2022/06/27 13:36:50;;;;;;;6.60;5.70;;;17.70;99.90;;;;;;6176588;28;20049;-82
2022/06/27 13:39:53;;;;;;;8.65;6.68;;;17.70;99.90;;;;;;6173919;28;20062;-82
2022/06/27 13:42:55;;;;;;;9.93;6.40;;;17.60;99.90;;;;;;6176424;28;20042;-82
2022/06/27 13:45:57;;;;;;;9.40;6.85;;;17.60;99.90;;;;;;6175509;28;20417;-82
2022/06/27 13:48:59;;;;;;;7.32;5.78;;;17.60;99.90;;;;;;6171411;28;20054;-82
2022/06/27 13:52:01;;;;;;;6.80;5.72;;;17.70;99.90;;;;;;6173672;28;20051;-81
2022/06/27 13:55:05;;;;;;;5.63;4.20;;;17.70;99.90;;;;;;6174155;28;20046;-82
2022/06/27 13:58:09;;;;;;;7.18;3.72;;;17.60;99.90;;;;;;6175275;28;20043;-82
2022/06/27 14:01:12;;;;;;;6.25;3.80;;;17.50;99.90;;;;;;6167981;28;20531;-82
2022/06/27 14:04:14;;;;;;;4.78;3.45;;;17.50;99.90;;;;;;6174903;28;20106;-82
2022/06/27 14:10:54;;;;;;;5.45;3.55;;;17.30;99.90;;;;;;6175231;28;20074;-82
2022/06/27 14:13:56;;;;;;;3.40;3.05;;;17.30;99.90;;;;;;6151317;28;20485;-82
2022/06/27 14:16:58;;;;;;;3.33;2.97;;;17.30;99.90;;;;;;6151203;29;20055;-82
2022/06/27 14:20:00;;;;;;;6.57;3.90;;;17.30;99.90;;;;;;6160539;28;20059;-82
2022/06/27 14:23:02;;;;;;;6.22;4.00;;;17.30;99.90;;;;;;6172918;28;20479;-82
2022/06/27 14:26:06;;;;;;;6.95;4.00;;;17.30;99.90;;;;;;6199285;28;20511;-82
2022/06/27 14:29:08;;;;;;;4.35;3.20;;;17.30;99.90;;;;;;6200280;28;20085;-81
2022/06/27 14:32:10;;;;;;;6.03;3.42;;;17.30;99.90;;;;;;6165703;28;20503;-82
2022/06/27 14:35:12;;;;;;;3.67;3.00;;;17.20;99.90;;;;;;6175263;28;20059;-81
2022/06/27 14:38:14;;;;;;;3.10;2.80;;;17.10;99.90;;;;;;6165131;28;20074;-82
2022/06/27 14:41:18;;;;;;;6.70;3.67;;;17.10;99.90;;;;;;6198843;28;20419;-75
2022/06/27 14:44:20;;;;;;;3.30;2.70;;;17.10;99.90;;;;;;6180372;28;20054;-73
2022/06/27 14:47:22;;;;;;;6.78;3.00;;;17.10;99.90;;;;;;6193884;28;20057;-74
2022/06/27 14:50:24;;;;;;;4.65;3.25;;;17.10;99.90;;;;;;6197291;28;20055;-75
2022/06/27 14:53:26;;;;;;;3.72;3.33;;;17.00;99.90;;;;;;6197541;28;20439;-73
2022/06/27 14:56:30;;;;;;;5.10;3.90;;;17.10;99.90;;;;;;6175128;28;20053;-73
2022/06/27 14:59:32;;;;;;;;;;;17.10;99.90;;;;;;6198105;28;20129;-74
2022/06/27 15:02:34;;;;;;;5.22;3.63;;;17.20;99.90;;;;;;6186724;28;19986;-74
2022/06/27 15:05:39;;;;;;;5.18;3.08;;;17.20;99.90;;;;;;6176319;28;20062;-73
2022/06/27 15:08:42;;;;;;;4.45;3.30;;;17.30;99.90;;;;;;6198533;28;20046;-74
2022/06/27 15:11:50;;;;;;;4.07;3.03;;;17.40;99.90;;;;;;6197290;28;20054;-73
2022/06/27 15:14:52;;;;;;;5.30;3.30;;;17.40;99.90;;;;;;6207928;28;20042;-73
2022/06/27 15:17:55;;;;;;;3.72;3.13;;;17.50;99.90;;;;;;6218633;28;20466;-75
2022/06/27 15:20:57;;;;;;;3.93;2.83;;;17.70;99.90;;;;;;6180509;28;20133;-74
2022/06/27 15:23:59;;;;;;;5.63;3.47;;;17.80;99.90;;;;;;6180473;28;20526;-74
2022/06/27 15:27:02;;;;;;;5.38;3.92;;;17.90;99.90;;;;;;6193985;28;20054;-74
2022/06/27 15:30:06;;;;;;;4.97;3.75;;;18.00;99.90;;;;;;6180295;28;20073;-74
2022/06/27 15:33:08;;;;;;;4.75;2.85;;;18.10;99.90;;;;;;6188221;28;20514;-74
2022/06/27 15:36:10;;;;;;;3.47;2.80;;;18.10;99.90;;;;;;6173628;28;20381;-74
2022/06/27 15:39:12;;;;;;;5.47;3.20;;;18.30;99.90;;;;;;6150230;28;20075;-73
2022/06/27 15:42:15;;;;;;;3.55;3.20;;;18.40;99.90;;;;;;6169001;28;20050;-74
2022/06/27 15:45:17;;;;;;;3.08;2.75;;;18.40;99.90;;;;;;6167018;28;20047;-74
2022/06/27 15:48:19;;;;;;;5.00;3.20;;;18.40;99.90;;;;;;6172750;28;20043;-74
2022/06/27 15:51:22;;;;;;;5.28;3.20;;;18.40;99.90;;;;;;6172960;28;20136;-73
2022/06/27 15:54:24;;;;;;;2.50;2.30;;;18.40;99.90;;;;;;6170780;28;20090;-71